Time;durP1;ratioP1;P1;durP2;ratioP2;P2;SDS_P1;SDS_P2;PMS_P1;PMS_P2;Temp;Humidity;BMP_temperature;BMP_pressure;BME280_temperature;BME280_humidity;BME280_pressure;Samples;Min_cycle;Max_cycle;Signal;HPM_P1;HPM_P2
2023/02/22 00:00:18;;;;;;;2.88;1.70;;;20.00;67.30;;;;;;4994016;28;20022;-75
2023/02/22 00:02:45;;;;;;;1.88;1.40;;;20.00;67.50;;;;;;4992585;28;20018;-74
2023/02/22 00:05:14;;;;;;;2.33;1.70;;;19.90;67.70;;;;;;4992619;28;20035;-75
2023/02/22 00:07:40;;;;;;;2.22;1.40;;;19.90;67.80;;;;;;4993936;28;20154;-74
2023/02/22 00:10:12;;;;;;;3.05;1.70;;;19.80;67.90;;;;;;4992800;28;20469;-74
2023/02/22 00:12:41;;;;;;;2.45;1.60;;;19.80;68.00;;;;;;4993978;28;20026;-74
2023/02/22 00:15:07;;;;;;;3.95;1.48;;;19.70;68.10;;;;;;4992746;28;20550;-75
2023/02/22 00:17:33;;;;;;;3.83;1.85;;;19.70;68.20;;;;;;4993602;28;20018;-75
2023/02/22 00:19:59;;;;;;;1.67;1.52;;;19.60;68.30;;;;;;4992163;28;20029;-75
2023/02/22 00:22:25;;;;;;;3.17;1.73;;;19.50;68.40;;;;;;4992265;28;20509;-75
2023/02/22 00:24:50;;;;;;;3.65;1.60;;;19.50;68.60;;;;;;4993674;28;20477;-75
2023/02/22 00:27:16;;;;;;;3.30;2.00;;;19.50;68.70;;;;;;4993823;28;20077;-75
2023/02/22 00:29:45;;;;;;;1.83;1.73;;;19.40;68.70;;;;;;4992288;28;20459;-75
2023/02/22 00:32:11;;;;;;;3.88;1.45;;;19.40;68.90;;;;;;4993312;28;20036;-75
2023/02/22 00:34:37;;;;;;;2.00;1.80;;;19.30;68.90;;;;;;4992323;28;20026;-75
2023/02/22 00:37:03;;;;;;;2.47;1.50;;;19.30;69.00;;;;;;4992621;28;20101;-75
2023/02/22 00:39:29;;;;;;;4.72;2.15;;;19.30;69.20;;;;;;4993473;28;20027;-75
2023/02/22 00:41:55;;;;;;;2.30;1.70;;;19.20;69.20;;;;;;4993591;28;20042;-74
2023/02/22 00:44:21;;;;;;;2.42;1.80;;;19.20;69.30;;;;;;4993170;28;20075;-75
2023/02/22 00:46:46;;;;;;;2.50;1.60;;;19.10;69.30;;;;;;4992182;28;20109;-74
2023/02/22 00:49:12;;;;;;;1.55;1.45;;;19.10;69.40;;;;;;4993599;28;20038;-75
2023/02/22 00:51:38;;;;;;;1.85;1.65;;;19.00;69.30;;;;;;4993306;28;20500;-74
2023/02/22 00:54:04;;;;;;;2.00;1.83;;;19.00;69.50;;;;;;4993472;28;20130;-74
2023/02/22 00:56:32;;;;;;;1.90;1.60;;;19.00;69.50;;;;;;4993171;28;20045;-75
2023/02/22 00:58:59;;;;;;;4.07;2.38;;;18.90;69.60;;;;;;4996453;28;20033;-74
2023/02/22 01:01:26;;;;;;;1.98;1.75;;;18.90;69.70;;;;;;4996894;28;20385;-75
2023/02/22 01:03:52;;;;;;;3.28;1.90;;;18.90;69.80;;;;;;4997439;28;20050;-75
2023/02/22 01:06:18;;;;;;;3.05;1.73;;;18.80;69.80;;;;;;4996023;28;20029;-75
2023/02/22 01:08:47;;;;;;;4.05;1.90;;;18.80;69.80;;;;;;4995780;28;20030;-75
2023/02/22 01:11:14;;;;;;;2.80;1.95;;;18.80;69.90;;;;;;4996038;28;20097;-74
2023/02/22 01:13:40;;;;;;;2.00;1.90;;;18.70;70.00;;;;;;4995994;28;20053;-75
2023/02/22 01:16:08;;;;;;;4.97;1.88;;;18.70;70.10;;;;;;4995792;28;20473;-75
2023/02/22 01:18:34;;;;;;;4.22;2.00;;;18.70;70.20;;;;;;4995532;28;20033;-74
2023/02/22 01:21:01;;;;;;;3.45;1.60;;;18.60;71.20;;;;;;4977837;28;20533;-74
2023/02/22 01:23:27;;;;;;;3.45;2.00;;;18.60;70.30;;;;;;4977555;28;20481;-74
2023/02/22 01:25:52;;;;;;;2.03;1.80;;;18.50;70.40;;;;;;4977531;28;20062;-75
2023/02/22 01:28:18;;;;;;;2.22;1.92;;;18.60;70.50;;;;;;4977521;28;20109;-74
2023/02/22 01:30:44;;;;;;;1.92;1.73;;;18.50;70.50;;;;;;4959851;28;20035;-74
2023/02/22 01:33:11;;;;;;;2.08;1.48;;;18.50;70.80;;;;;;4977444;28;20387;-74
2023/02/22 01:35:39;;;;;;;2.40;1.95;;;18.40;70.70;;;;;;4960208;28;20102;-74
2023/02/22 01:38:05;;;;;;;1.73;1.63;;;18.40;70.70;;;;;;4960374;28;20491;-75
2023/02/22 01:40:33;;;;;;;2.78;2.10;;;18.40;70.90;;;;;;4977111;28;20015;-75
2023/02/22 01:43:01;;;;;;;2.25;2.00;;;18.40;70.90;;;;;;4977367;28;20428;-75
2023/02/22 01:45:29;;;;;;;2.88;2.42;;;18.30;70.90;;;;;;4976786;28;20354;-74
2023/02/22 01:48:07;;;;;;;2.33;1.92;;;18.30;71.00;;;;;;4977291;28;20548;-74
2023/02/22 01:50:36;;;;;;;2.10;1.90;;;18.30;71.10;;;;;;4975706;28;20026;-75
2023/02/22 01:53:02;;;;;;;1.73;1.63;;;18.30;71.20;;;;;;4960186;28;20034;-75
2023/02/22 01:55:27;;;;;;;3.05;1.95;;;18.20;71.20;;;;;;4975543;28;20026;-74
2023/02/22 01:57:53;;;;;;;3.78;2.10;;;18.20;71.30;;;;;;4977089;28;20023;-74
2023/02/22 02:00:20;;;;;;;2.05;1.85;;;18.20;71.40;;;;;;4976932;28;20023;-75
2023/02/22 02:03:07;;;;;;;4.75;2.17;;;18.20;71.60;;;;;;4976924;28;20027;-75
2023/02/22 02:05:33;;;;;;;2.05;1.80;;;18.10;71.70;;;;;;4986399;28;20126;-74
2023/02/22 02:08:02;;;;;;;2.17;1.85;;;18.10;71.70;;;;;;4991128;28;20039;-74
2023/02/22 02:10:28;;;;;;;1.85;1.65;;;18.10;71.80;;;;;;4991275;28;20038;-74
2023/02/22 02:12:53;;;;;;;2.63;1.88;;;18.10;71.90;;;;;;4976747;28;20023;-75
2023/02/22 02:15:22;;;;;;;2.78;1.95;;;18.10;71.90;;;;;;4991194;28;20085;-75
2023/02/22 02:17:48;;;;;;;1.83;1.70;;;18.00;71.90;;;;;;4976624;28;20114;-74
2023/02/22 02:20:29;;;;;;;1.90;1.80;;;18.00;72.00;;;;;;4991239;28;20052;-75
2023/02/22 02:23:13;;;;;;;2.22;1.80;;;18.00;72.20;;;;;;4975532;28;20031;-74
2023/02/22 02:25:47;;;;;;;2.72;2.25;;;18.00;72.30;;;;;;4975254;28;20019;-75
2023/02/22 02:28:43;;;;;;;3.75;2.08;;;18.00;72.30;;;;;;4975120;28;20055;-74
2023/02/22 02:31:09;;;;;;;2.38;1.77;;;17.90;72.40;;;;;;4976262;28;20050;-75
2023/02/22 02:33:48;;;;;;;2.95;2.47;;;17.90;72.50;;;;;;4976067;28;20027;-75
2023/02/22 02:36:18;;;;;;;2.28;1.92;;;17.90;72.60;;;;;;4974913;28;20107;-75
2023/02/22 02:39:00;;;;;;;2.33;1.85;;;17.90;72.70;;;;;;4975091;28;20416;-75
2023/02/22 02:41:26;;;;;;;3.33;2.05;;;17.90;72.80;;;;;;4974960;28;20101;-75
2023/02/22 02:44:12;;;;;;;3.05;2.10;;;17.80;72.90;;;;;;4974776;28;20031;-75
2023/02/22 02:46:48;;;;;;;3.70;2.00;;;17.80;73.00;;;;;;4974645;28;20027;-74
2023/02/22 02:49:34;;;;;;;2.30;2.08;;;17.80;73.00;;;;;;4974692;28;20035;-75
2023/02/22 02:52:00;;;;;;;2.30;2.10;;;17.80;73.10;;;;;;4974690;28;20027;-74
2023/02/22 02:54:26;;;;;;;3.90;2.05;;;17.80;73.20;;;;;;4974496;28;20039;-75
2023/02/22 02:56:52;;;;;;;1.95;1.73;;;17.80;73.20;;;;;;4974466;28;20027;-74
2023/02/22 02:59:26;;;;;;;2.40;2.20;;;17.70;73.20;;;;;;4974423;28;20077;-75
2023/02/22 03:02:12;;;;;;;2.25;2.05;;;17.70;73.20;;;;;;4975666;28;20106;-75
2023/02/22 03:04:49;;;;;;;2.47;2.28;;;17.70;73.20;;;;;;4982421;28;20135;-75
2023/02/22 03:07:55;;;;;;;2.35;2.15;;;17.70;73.30;;;;;;4995056;28;20026;-75
2023/02/22 03:10:42;;;;;;;4.43;1.70;;;17.70;73.20;;;;;;4993512;28;20026;-75
2023/02/22 03:13:13;;;;;;;3.10;1.90;;;17.70;73.40;;;;;;4994535;28;20030;-74
2023/02/22 03:16:08;;;;;;;2.60;2.10;;;17.60;73.40;;;;;;4993515;28;20384;-75
2023/02/22 03:18:57;;;;;;;2.33;2.08;;;17.60;73.30;;;;;;5000691;28;20038;-75
2023/02/22 03:21:44;;;;;;;3.20;2.60;;;17.60;73.50;;;;;;4974078;28;20051;-74
2023/02/22 03:24:17;;;;;;;3.47;2.05;;;17.60;73.50;;;;;;4973916;28;20073;-75
2023/02/22 03:27:10;;;;;;;2.42;2.17;;;17.60;73.60;;;;;;4973720;28;20051;-74
2023/02/22 03:29:38;;;;;;;2.00;1.90;;;17.50;73.50;;;;;;4973920;28;20035;-74
2023/02/22 03:32:06;;;;;;;3.67;2.00;;;17.50;73.50;;;;;;4957996;28;20027;-74
2023/02/22 03:34:35;;;;;;;2.28;2.08;;;17.50;73.50;;;;;;4957954;28;20023;-75
2023/02/22 03:37:13;;;;;;;4.05;2.20;;;17.50;73.50;;;;;;4973957;28;20023;-74
2023/02/22 03:39:39;;;;;;;2.97;2.42;;;17.50;73.70;;;;;;4959054;28;20081;-75
2023/02/22 03:42:11;;;;;;;2.25;1.85;;;17.50;73.60;;;;;;4957471;28;20018;-75
2023/02/22 03:44:37;;;;;;;3.50;2.40;;;17.40;73.60;;;;;;4958187;28;20093;-74
2023/02/22 03:47:05;;;;;;;2.47;2.28;;;17.40;73.60;;;;;;4973864;28;20066;-74
2023/02/22 03:49:36;;;;;;;2.33;1.98;;;17.40;73.70;;;;;;4957501;28;20487;-74
2023/02/22 03:52:02;;;;;;;3.90;2.20;;;17.40;73.70;;;;;;4957728;28;20050;-74
2023/02/22 03:54:28;;;;;;;3.20;2.40;;;17.40;73.70;;;;;;4957346;28;20023;-74
2023/02/22 03:56:56;;;;;;;2.30;2.10;;;17.30;73.80;;;;;;4973276;28;20030;-74
2023/02/22 03:59:24;;;;;;;3.33;2.42;;;17.30;73.80;;;;;;4957306;28;20109;-75
2023/02/22 04:01:51;;;;;;;2.50;2.30;;;17.40;73.90;;;;;;4957757;28;20023;-74
2023/02/22 04:04:17;;;;;;;3.50;2.75;;;17.30;73.80;;;;;;4957576;28;20026;-75
2023/02/22 04:06:43;;;;;;;3.17;2.45;;;17.30;74.00;;;;;;4974439;28;20493;-75
2023/02/22 04:09:09;;;;;;;2.85;2.50;;;17.30;73.90;;;;;;4991877;28;20022;-74
2023/02/22 04:11:34;;;;;;;3.95;2.33;;;17.30;74.00;;;;;;4992968;28;20456;-74
2023/02/22 04:14:00;;;;;;;3.53;2.20;;;17.30;74.10;;;;;;4993200;28;20113;-75
2023/02/22 04:16:26;;;;;;;4.07;2.20;;;17.20;74.10;;;;;;4992207;28;20420;-75
2023/02/22 04:18:51;;;;;;;3.72;2.22;;;17.30;74.20;;;;;;4993002;28;20373;-75
2023/02/22 04:21:17;;;;;;;2.33;2.13;;;17.20;74.20;;;;;;5007961;28;20424;-74
2023/02/22 04:23:42;;;;;;;2.67;2.45;;;17.20;74.30;;;;;;4992904;28;20027;-74
2023/02/22 04:26:08;;;;;;;4.10;2.28;;;17.20;74.30;;;;;;4993147;28;20030;-75
2023/02/22 04:28:34;;;;;;;3.72;2.00;;;17.20;74.40;;;;;;4991805;28;20090;-74
2023/02/22 04:30:59;;;;;;;6.13;2.72;;;17.20;74.40;;;;;;4992822;28;20515;-74
2023/02/22 04:33:25;;;;;;;2.20;2.05;;;17.20;74.50;;;;;;4991665;28;20484;-74
2023/02/22 04:35:51;;;;;;;2.47;2.20;;;17.20;74.50;;;;;;4993153;28;20468;-74
2023/02/22 04:38:16;;;;;;;3.08;2.20;;;17.20;74.50;;;;;;4992997;28;20028;-74
2023/02/22 04:40:42;;;;;;;3.38;2.40;;;17.10;74.50;;;;;;4992875;28;20026;-74
2023/02/22 04:43:08;;;;;;;3.67;1.90;;;17.10;74.50;;;;;;4992840;28;20038;-74
2023/02/22 04:45:33;;;;;;;3.08;2.38;;;17.10;74.60;;;;;;4991803;28;20022;-74
2023/02/22 04:47:59;;;;;;;2.97;2.50;;;17.10;74.50;;;;;;4992879;28;20420;-75
2023/02/22 04:50:24;;;;;;;3.70;2.28;;;17.10;74.60;;;;;;4988353;28;20496;-74
2023/02/22 04:52:50;;;;;;;2.92;2.15;;;17.10;74.60;;;;;;4992424;28;20031;-74
2023/02/22 04:55:16;;;;;;;3.95;2.03;;;17.10;74.60;;;;;;4992544;28;20106;-75
2023/02/22 04:57:41;;;;;;;3.50;2.15;;;17.10;74.70;;;;;;4991663;28;20027;-74
2023/02/22 05:00:09;;;;;;;5.85;2.50;;;17.10;74.70;;;;;;4992782;28;20026;-75
2023/02/22 05:02:37;;;;;;;2.50;1.88;;;17.10;74.70;;;;;;4992787;28;20018;-75
2023/02/22 05:05:03;;;;;;;2.70;2.13;;;17.00;74.70;;;;;;4991449;28;20030;-75
2023/02/22 05:07:29;;;;;;;3.42;2.20;;;17.00;74.70;;;;;;4991437;28;20041;-74
2023/02/22 05:09:54;;;;;;;4.20;1.90;;;17.00;74.70;;;;;;4992887;28;20030;-75
2023/02/22 05:12:20;;;;;;;2.72;1.70;;;17.00;74.70;;;;;;4991664;28;20030;-75
2023/02/22 05:14:46;;;;;;;2.70;1.83;;;17.00;74.80;;;;;;4991546;28;20038;-75
2023/02/22 05:17:11;;;;;;;6.82;2.30;;;17.00;74.80;;;;;;4992646;28;20089;-74
2023/02/22 05:19:37;;;;;;;2.17;1.90;;;17.00;74.90;;;;;;4968886;28;20015;-74
2023/02/22 05:22:04;;;;;;;2.50;2.10;;;16.90;74.80;;;;;;4990914;28;20142;-75
2023/02/22 05:24:31;;;;;;;1.98;1.70;;;17.00;75.00;;;;;;4992758;28;20373;-74
2023/02/22 05:26:56;;;;;;;3.47;1.70;;;17.00;74.90;;;;;;4991448;28;20030;-75
2023/02/22 05:29:22;;;;;;;1.98;1.77;;;17.00;75.00;;;;;;4991516;28;20093;-74
2023/02/22 05:31:48;;;;;;;3.60;1.90;;;17.00;75.00;;;;;;4992425;28;20105;-75
2023/02/22 05:34:14;;;;;;;2.42;1.80;;;16.90;74.90;;;;;;4991284;28;20054;-74
2023/02/22 05:36:39;;;;;;;2.15;1.90;;;16.90;75.10;;;;;;4975094;28;20109;-75
2023/02/22 05:39:05;;;;;;;10.55;2.05;;;16.90;75.10;;;;;;4992814;28;20097;-75
2023/02/22 05:41:31;;;;;;;5.80;1.73;;;16.90;75.10;;;;;;4992395;28;20081;-74
2023/02/22 05:43:56;;;;;;;4.50;1.90;;;16.90;75.20;;;;;;4992867;28;20049;-75
2023/02/22 05:46:22;;;;;;;1.75;1.60;;;16.90;75.20;;;;;;4996403;28;20030;-74
2023/02/22 05:48:48;;;;;;;2.25;1.92;;;16.90;75.20;;;;;;4995916;28;20026;-74
2023/02/22 05:51:13;;;;;;;2.10;1.90;;;16.90;75.20;;;;;;4995890;28;20058;-75
2023/02/22 05:53:39;;;;;;;1.80;1.70;;;16.90;75.20;;;;;;4995753;28;20109;-74
2023/02/22 05:56:05;;;;;;;4.30;1.80;;;16.80;75.20;;;;;;4994836;28;20101;-74
2023/02/22 05:58:31;;;;;;;2.03;1.50;;;16.80;75.30;;;;;;4978473;28;20533;-75
2023/02/22 06:00:56;;;;;;;2.63;1.70;;;16.80;75.20;;;;;;4995725;28;20026;-74
2023/02/22 06:03:22;;;;;;;3.53;1.63;;;16.80;75.30;;;;;;4995795;28;20390;-74
2023/02/22 06:05:48;;;;;;;2.55;1.88;;;16.80;75.30;;;;;;4995107;28;20026;-74
2023/02/22 06:08:13;;;;;;;2.90;1.60;;;16.80;75.30;;;;;;4995703;28;20081;-74
2023/02/22 06:10:39;;;;;;;2.58;1.58;;;16.80;75.40;;;;;;4995166;28;20022;-74
2023/02/22 06:13:05;;;;;;;4.15;1.83;;;16.80;75.50;;;;;;4995622;28;20023;-75
2023/02/22 06:15:30;;;;;;;1.90;1.70;;;16.80;75.50;;;;;;4994360;28;20030;-75
2023/02/22 06:17:57;;;;;;;1.70;1.60;;;16.80;75.50;;;;;;4994053;28;20040;-74
2023/02/22 06:20:23;;;;;;;3.45;1.80;;;16.80;75.60;;;;;;4990468;28;20051;-75
2023/02/22 06:22:53;;;;;;;3.05;1.80;;;16.80;75.60;;;;;;4974589;28;20026;-75
2023/02/22 06:25:21;;;;;;;1.95;1.58;;;16.70;75.70;;;;;;4974613;28;20074;-75
2023/02/22 06:27:46;;;;;;;2.13;1.60;;;16.70;75.60;;;;;;4975969;28;20023;-75
2023/02/22 06:30:12;;;;;;;2.42;1.55;;;16.70;75.60;;;;;;4975817;28;20031;-75
2023/02/22 06:32:38;;;;;;;3.15;1.63;;;16.70;75.60;;;;;;4974403;28;20085;-75
2023/02/22 06:35:04;;;;;;;2.67;1.30;;;16.70;75.60;;;;;;4975402;28;20027;-75
2023/02/22 06:37:30;;;;;;;2.30;1.40;;;16.70;75.70;;;;;;4975644;28;20058;-75
2023/02/22 06:39:55;;;;;;;2.00;1.67;;;16.70;75.60;;;;;;4975548;28;20054;-75
2023/02/22 06:42:21;;;;;;;1.42;1.33;;;16.70;75.70;;;;;;4975624;28;20038;-74
2023/02/22 06:44:47;;;;;;;2.00;1.65;;;16.70;75.70;;;;;;4975386;28;20116;-75
2023/02/22 06:47:13;;;;;;;1.63;1.25;;;16.70;75.80;;;;;;4974098;28;20549;-74
2023/02/22 06:49:38;;;;;;;2.33;1.45;;;16.70;75.80;;;;;;4975348;28;20138;-75
2023/02/22 06:52:05;;;;;;;2.03;1.45;;;16.70;75.90;;;;;;4975308;28;20161;-75
2023/02/22 06:54:31;;;;;;;2.45;1.60;;;16.60;75.80;;;;;;4974015;28;20034;-74
2023/02/22 06:56:56;;;;;;;1.50;1.40;;;16.60;75.80;;;;;;4975112;28;20031;-74
2023/02/22 06:59:22;;;;;;;4.15;1.48;;;16.60;75.90;;;;;;4975243;28;20022;-75
2023/02/22 07:01:48;;;;;;;1.88;1.40;;;16.60;75.90;;;;;;4975055;28;20019;-75
2023/02/22 07:04:14;;;;;;;2.58;1.58;;;16.60;75.90;;;;;;4961146;28;20031;-75
2023/02/22 07:06:45;;;;;;;3.00;1.90;;;16.60;75.90;;;;;;4994396;28;20029;-75
2023/02/22 07:09:11;;;;;;;2.45;1.70;;;16.60;76.00;;;;;;4994458;28;20034;-75
2023/02/22 07:11:38;;;;;;;3.60;1.60;;;16.60;76.10;;;;;;4994415;28;20085;-75
2023/02/22 07:14:04;;;;;;;2.67;1.60;;;16.60;76.20;;;;;;4994251;28;20029;-75
2023/02/22 07:16:29;;;;;;;1.70;1.60;;;16.60;76.20;;;;;;4994471;28;20018;-75
2023/02/22 07:18:55;;;;;;;1.33;1.23;;;16.60;76.10;;;;;;4994013;28;20495;-74
2023/02/22 07:21:21;;;;;;;4.07;1.80;;;16.60;76.10;;;;;;4993961;28;20053;-75
2023/02/22 07:23:51;;;;;;;1.27;1.17;;;16.60;76.00;;;;;;4994129;28;20061;-75
2023/02/22 07:26:16;;;;;;;2.53;1.30;;;16.60;75.10;;;;;;4993134;28;20400;-74
2023/02/22 07:28:42;;;;;;;2.70;1.45;;;16.70;74.70;;;;;;4994101;28;20034;-76
2023/02/22 07:31:08;;;;;;;1.40;1.20;;;16.70;74.40;;;;;;4994037;28;20058;-75
2023/02/22 07:33:34;;;;;;;1.65;1.42;;;16.70;74.10;;;;;;4993773;28;20081;-74
2023/02/22 07:35:59;;;;;;;1.50;1.40;;;16.80;73.90;;;;;;4994084;28;20471;-75
2023/02/22 07:38:25;;;;;;;1.38;1.13;;;16.70;73.80;;;;;;4994031;28;20106;-75
2023/02/22 07:40:51;;;;;;;3.10;1.20;;;16.70;73.80;;;;;;4993778;28;20080;-75
2023/02/22 07:43:23;;;;;;;2.22;1.35;;;16.70;73.80;;;;;;4993852;28;20076;-74
2023/02/22 07:45:50;;;;;;;30.95;5.53;;;16.80;73.80;;;;;;4992240;28;20120;-75
2023/02/22 07:48:16;;;;;;;24.40;4.63;;;16.80;74.30;;;;;;4991868;28;20022;-75
2023/02/22 07:50:42;;;;;;;32.97;5.07;;;16.80;74.70;;;;;;4991250;28;20018;-75
2023/02/22 07:53:36;;;;;;;24.42;4.32;;;16.80;74.70;;;;;;4975201;28;20394;-74
2023/02/22 07:56:04;;;;;;;22.10;3.80;;;16.80;74.50;;;;;;4990823;28;20401;-74
2023/02/22 07:58:30;;;;;;;16.13;3.72;;;16.90;74.40;;;;;;4991413;28;20128;-75
2023/02/22 08:00:56;;;;;;;14.77;4.03;;;16.90;74.20;;;;;;4987744;28;20137;-75
2023/02/22 08:03:23;;;;;;;13.90;3.78;;;16.90;74.10;;;;;;4982547;28;20109;-75
2023/02/22 08:05:54;;;;;;;21.35;4.20;;;16.90;74.10;;;;;;4991303;28;20054;-75
2023/02/22 08:08:20;;;;;;;13.30;3.42;;;16.90;74.00;;;;;;4992200;28;20030;-75
2023/02/22 08:10:46;;;;;;;15.27;3.20;;;16.90;73.90;;;;;;4974985;28;20030;-75
2023/02/22 08:13:11;;;;;;;18.10;4.07;;;16.90;73.90;;;;;;4972539;28;20105;-75
2023/02/22 08:15:39;;;;;;;14.40;2.97;;;16.90;73.90;;;;;;4956826;28;20434;-75
2023/02/22 08:18:12;;;;;;;13.52;3.50;;;16.90;73.90;;;;;;4964822;28;20021;-74
2023/02/22 08:20:39;;;;;;;17.20;3.28;;;16.90;73.90;;;;;;4993094;28;20046;-74
2023/02/22 08:23:05;;;;;;;12.18;3.33;;;16.90;73.90;;;;;;4993159;28;20023;-75
2023/02/22 08:25:30;;;;;;;12.40;3.03;;;16.90;73.90;;;;;;4991946;28;20022;-75
2023/02/22 08:27:59;;;;;;;8.98;2.33;;;16.90;74.00;;;;;;4992094;28;20030;-74
2023/02/22 08:30:25;;;;;;;13.20;2.75;;;16.90;73.90;;;;;;4991957;28;20026;-75
2023/02/22 08:32:51;;;;;;;13.25;2.95;;;16.90;73.90;;;;;;4991743;28;20528;-75
2023/02/22 08:35:18;;;;;;;10.63;2.53;;;16.90;73.90;;;;;;4983384;28;20026;-75
2023/02/22 08:37:44;;;;;;;7.38;2.97;;;16.90;74.90;;;;;;4972376;28;20026;-75
2023/02/22 08:40:10;;;;;;;6.63;2.22;;;16.90;73.90;;;;;;4972438;28;20023;-75
2023/02/22 08:42:36;;;;;;;4.53;1.90;;;17.00;73.90;;;;;;4973545;28;20078;-75
2023/02/22 08:45:01;;;;;;;8.63;2.28;;;16.90;73.80;;;;;;4973254;28;20030;-75
2023/02/22 08:47:27;;;;;;;12.13;2.85;;;17.00;73.90;;;;;;4973603;28;20045;-75
2023/02/22 08:49:53;;;;;;;9.68;2.15;;;16.90;73.70;;;;;;4973605;28;20167;-75
2023/02/22 08:52:20;;;;;;;9.32;3.05;;;17.00;73.80;;;;;;4972673;28;20031;-75
2023/02/22 08:54:46;;;;;;;7.15;2.55;;;16.90;73.70;;;;;;4973417;28;20022;-75
2023/02/22 08:57:12;;;;;;;7.85;2.50;;;17.00;73.70;;;;;;4973413;28;20061;-75
2023/02/22 08:59:37;;;;;;;10.50;1.98;;;17.00;73.60;;;;;;4972243;28;20374;-76
2023/02/22 09:02:04;;;;;;;8.50;2.45;;;17.00;73.60;;;;;;4987673;28;20042;-74
2023/02/22 09:04:29;;;;;;;8.57;2.30;;;17.00;73.60;;;;;;4993115;28;20492;-75
2023/02/22 09:06:55;;;;;;;7.95;2.20;;;16.90;73.40;;;;;;4992760;28;20084;-74
2023/02/22 09:09:21;;;;;;;10.40;2.60;;;17.00;73.50;;;;;;4992721;28;20109;-75
2023/02/22 09:11:47;;;;;;;7.53;2.22;;;17.00;73.50;;;;;;4991725;28;20864;-75
2023/02/22 09:14:14;;;;;;;8.23;2.20;;;16.90;73.30;;;;;;4992331;28;20575;-75
2023/02/22 09:16:39;;;;;;;9.63;2.28;;;16.90;73.30;;;;;;4992679;28;20023;-75
2023/02/22 09:19:05;;;;;;;5.18;2.10;;;16.90;73.20;;;;;;4994875;28;20030;-75
2023/02/22 09:21:31;;;;;;;5.50;2.03;;;17.00;73.30;;;;;;4996125;28;20050;-75
2023/02/22 09:23:57;;;;;;;5.68;1.67;;;17.00;73.30;;;;;;4996296;28;20026;-75
2023/02/22 09:26:22;;;;;;;4.82;1.95;;;17.00;73.20;;;;;;4995365;28;20080;-74
2023/02/22 09:28:49;;;;;;;4.65;1.63;;;17.00;73.20;;;;;;4996268;28;20052;-75
2023/02/22 09:31:15;;;;;;;4.72;1.80;;;17.00;73.10;;;;;;4995179;28;20018;-75
2023/02/22 09:33:40;;;;;;;2.90;1.42;;;17.00;73.10;;;;;;4995135;28;20030;-75
2023/02/22 09:36:06;;;;;;;4.00;1.38;;;17.00;73.10;;;;;;4996180;28;20030;-74
2023/02/22 09:38:32;;;;;;;4.93;1.55;;;17.00;73.00;;;;;;4996276;28;20048;-75
2023/02/22 09:41:04;;;;;;;6.90;2.20;;;17.00;73.00;;;;;;4996113;28;20030;-75
2023/02/22 09:43:56;;;;;;;4.63;1.77;;;17.00;73.00;;;;;;4995968;28;20058;-75
2023/02/22 09:46:33;;;;;;;4.88;1.85;;;17.00;72.90;;;;;;4987472;28;20528;-74
2023/02/22 09:49:36;;;;;;;4.35;1.67;;;17.00;72.90;;;;;;4974482;28;20437;-75
2023/02/22 09:52:17;;;;;;;4.43;1.45;;;17.00;72.90;;;;;;4987526;28;20035;-74
2023/02/22 09:55:14;;;;;;;4.70;1.55;;;17.00;72.80;;;;;;4989978;28;20031;-74
2023/02/22 09:57:41;;;;;;;3.10;1.40;;;17.00;72.80;;;;;;4990118;28;20439;-74
2023/02/22 10:00:17;;;;;;;5.35;1.60;;;17.00;72.70;;;;;;4990331;28;20031;-74
2023/02/22 10:03:18;;;;;;;3.63;1.60;;;17.00;72.80;;;;;;4974068;28;20039;-75
2023/02/22 10:06:04;;;;;;;6.35;1.80;;;17.00;72.70;;;;;;4974269;28;20497;-74
2023/02/22 10:08:32;;;;;;;5.80;1.60;;;17.00;72.70;;;;;;4988042;28;20034;-75
2023/02/22 10:11:24;;;;;;;5.03;1.73;;;17.00;72.60;;;;;;4970804;28;20035;-75
2023/02/22 10:13:50;;;;;;;4.83;1.57;;;17.00;72.60;;;;;;4967535;28;20058;-75
2023/02/22 10:16:22;;;;;;;4.75;1.30;;;17.00;72.60;;;;;;4954697;29;20306;-74
2023/02/22 10:18:53;;;;;;;;;;;17.00;72.60;;;;;;4970719;28;20061;-75
2023/02/22 10:21:44;;;;;;;3.90;1.58;;;17.00;72.50;;;;;;4969829;28;19974;-75
2023/02/22 10:24:23;;;;;;;4.43;1.70;;;17.00;72.50;;;;;;4974478;28;20505;-74
2023/02/22 10:26:49;;;;;;;5.45;1.50;;;17.00;72.50;;;;;;4975813;28;20022;-75
2023/02/22 10:29:38;;;;;;;3.45;1.60;;;17.00;72.50;;;;;;4958010;28;20037;-74
2023/02/22 10:32:04;;;;;;;3.88;1.40;;;17.00;72.40;;;;;;4975566;28;20023;-75
2023/02/22 10:34:32;;;;;;;4.13;1.42;;;17.00;72.30;;;;;;4974626;28;20034;-74
2023/02/22 10:37:31;;;;;;;2.38;1.30;;;17.00;72.30;;;;;;4958644;28;20022;-74
2023/02/22 10:40:16;;;;;;;3.35;1.30;;;17.00;72.30;;;;;;4974830;28;20051;-74
2023/02/22 10:42:41;;;;;;;2.72;1.40;;;16.90;72.20;;;;;;4974332;28;20023;-75
2023/02/22 10:45:28;;;;;;;3.45;1.48;;;16.90;72.20;;;;;;4958384;28;20023;-75
2023/02/22 10:47:57;;;;;;;2.95;1.27;;;17.00;72.20;;;;;;4974198;28;20030;-75
2023/02/22 10:50:23;;;;;;;2.72;1.30;;;17.00;72.20;;;;;;4974194;28;20023;-75
2023/02/22 10:52:49;;;;;;;3.92;1.35;;;17.00;72.20;;;;;;4958277;28;20035;-75
2023/02/22 10:55:15;;;;;;;3.65;1.20;;;17.00;72.10;;;;;;4973836;28;20161;-74
2023/02/22 10:57:41;;;;;;;2.72;1.20;;;16.90;72.00;;;;;;4974247;28;20085;-75
2023/02/22 11:00:25;;;;;;;1.98;1.17;;;17.00;72.00;;;;;;4958106;28;20010;-74
2023/02/22 11:03:01;;;;;;;3.85;1.55;;;17.00;72.00;;;;;;4989503;28;20146;-74
2023/02/22 11:05:45;;;;;;;3.88;1.25;;;17.00;72.00;;;;;;4990190;28;20425;-75
2023/02/22 11:08:19;;;;;;;3.40;1.02;;;17.00;72.00;;;;;;4990072;28;20029;-75
2023/02/22 11:10:45;;;;;;;2.72;1.30;;;17.00;72.00;;;;;;4975048;28;20030;-75
2023/02/22 11:13:27;;;;;;;2.17;1.08;;;17.00;72.00;;;;;;4974757;28;20033;-75
2023/02/22 11:16:19;;;;;;;2.92;1.30;;;17.00;71.90;;;;;;4989875;28;20023;-74
2023/02/22 11:18:46;;;;;;;3.95;1.27;;;17.00;71.90;;;;;;4970960;28;20031;-75
2023/02/22 11:21:12;;;;;;;2.63;0.80;;;17.00;71.90;;;;;;4957595;28;20043;-75
2023/02/22 11:23:40;;;;;;;1.38;0.90;;;16.90;71.80;;;;;;4957663;28;20026;-75
2023/02/22 11:26:17;;;;;;;2.10;1.08;;;17.00;71.80;;;;;;4989362;28;20023;-75
2023/02/22 11:28:48;;;;;;;2.33;1.10;;;17.00;71.70;;;;;;4957789;28;20106;-74
2023/02/22 11:31:23;;;;;;;2.17;1.30;;;17.00;71.70;;;;;;4958170;28;20034;-75
2023/02/22 11:33:59;;;;;;;2.42;0.90;;;16.90;71.70;;;;;;4974499;28;20404;-75
2023/02/22 11:36:39;;;;;;;2.83;0.85;;;17.00;71.70;;;;;;4973456;28;20022;-75
2023/02/22 11:39:31;;;;;;;2.90;1.13;;;16.90;71.60;;;;;;4973285;28;20057;-75
2023/02/22 11:41:56;;;;;;;3.10;1.00;;;17.00;71.70;;;;;;4985851;28;20022;-75
2023/02/22 11:44:27;;;;;;;1.75;1.00;;;17.00;71.60;;;;;;4973171;28;20101;-74
2023/02/22 11:46:54;;;;;;;2.67;0.90;;;17.00;71.60;;;;;;4974406;28;20504;-75
2023/02/22 11:49:24;;;;;;;2.90;1.10;;;17.00;71.50;;;;;;4989009;28;20027;-75
2023/02/22 11:52:15;;;;;;;2.35;1.10;;;16.90;71.50;;;;;;4989255;28;20027;-75
2023/02/22 11:55:02;;;;;;;1.42;1.00;;;17.00;71.50;;;;;;4959490;28;20568;-74
2023/02/22 11:57:54;;;;;;;1.98;0.88;;;17.00;71.50;;;;;;4972983;28;20023;-75
2023/02/22 12:00:42;;;;;;;1.83;0.80;;;17.00;71.50;;;;;;4960341;28;20019;-75
2023/02/22 12:03:20;;;;;;;1.67;0.82;;;17.00;71.50;;;;;;4993524;28;20025;-75
2023/02/22 12:06:23;;;;;;;2.38;1.10;;;17.00;71.50;;;;;;4993671;28;20456;-74
2023/02/22 12:09:14;;;;;;;2.40;0.93;;;16.90;71.40;;;;;;4992135;28;20105;-75
2023/02/22 12:11:56;;;;;;;1.25;0.88;;;17.00;71.50;;;;;;4992542;28;20037;-75
2023/02/22 12:14:33;;;;;;;1.77;1.00;;;17.00;71.50;;;;;;4993259;28;20551;-75
2023/02/22 12:17:07;;;;;;;1.58;1.00;;;17.00;71.40;;;;;;4993269;28;20297;-75
2023/02/22 12:19:37;;;;;;;2.22;1.10;;;17.00;71.40;;;;;;4993135;28;20030;-75
2023/02/22 12:22:16;;;;;;;1.27;0.70;;;17.00;71.40;;;;;;4991907;28;20043;-75
2023/02/22 12:25:05;;;;;;;1.90;0.93;;;16.90;71.30;;;;;;4993183;28;20030;-75
2023/02/22 12:27:52;;;;;;;2.15;0.98;;;17.00;71.40;;;;;;4991858;28;20022;-74
2023/02/22 12:30:29;;;;;;;1.42;0.80;;;17.00;71.30;;;;;;5024906;28;20038;-75
2023/02/22 12:32:59;;;;;;;1.40;0.70;;;16.90;71.30;;;;;;4992076;28;20022;-74
2023/02/22 12:35:41;;;;;;;2.50;0.90;;;17.00;71.30;;;;;;4991804;28;20084;-74
2023/02/22 12:38:16;;;;;;;1.73;0.68;;;17.00;71.20;;;;;;4991818;28;20112;-74
2023/02/22 12:41:07;;;;;;;1.60;0.70;;;16.90;71.20;;;;;;4992913;28;20026;-75
2023/02/22 12:43:33;;;;;;;1.20;0.60;;;17.00;71.20;;;;;;4991882;28;20026;-75
2023/02/22 12:45:58;;;;;;;2.03;0.82;;;17.00;71.20;;;;;;4992951;28;20038;-75
2023/02/22 12:48:42;;;;;;;1.58;0.63;;;17.00;71.20;;;;;;4992915;28;20022;-74
2023/02/22 12:51:16;;;;;;;1.48;0.70;;;17.00;71.20;;;;;;4993187;28;20030;-74
2023/02/22 12:53:48;;;;;;;2.45;0.93;;;16.90;71.10;;;;;;4996063;28;20026;-75
2023/02/22 12:56:16;;;;;;;1.23;0.60;;;17.00;71.10;;;;;;4995693;28;20030;-74
2023/02/22 12:58:58;;;;;;;1.40;0.68;;;16.90;71.00;;;;;;4995730;28;20104;-74
2023/02/22 13:01:26;;;;;;;3.95;1.00;;;17.00;71.00;;;;;;4995490;28;20015;-74